Time;durP1;ratioP1;P1;durP2;ratioP2;P2;SDS_P1;SDS_P2;PMS_P1;PMS_P2;Temp;Humidity;BMP_temperature;BMP_pressure;BME280_temperature;BME280_humidity;BME280_pressure;Samples;Min_cycle;Max_cycle;Signal;HPM_P1;HPM_P2
2023/08/14 00:00:04;;;;;;;;;12.00;10.50;;;;;25.97;48.87;99110.53;5076655;28;46536;-62
2023/08/14 00:02:29;;;;;;;;;10.00;8.40;;;;;25.95;48.58;99116.09;5076278;28;45378;-62
2023/08/14 00:04:54;;;;;;;;;11.25;9.50;;;;;25.93;48.94;99112.69;5076259;28;45311;-62
2023/08/14 00:07:20;;;;;;;;;9.50;9.50;;;;;25.90;49.26;99104.91;5074763;28;45511;-62
2023/08/14 00:09:45;;;;;;;;;9.50;8.00;;;;;25.83;49.31;99103.84;5076441;28;45596;-62
2023/08/14 00:12:10;;;;;;;;;9.50;8.50;;;;;25.77;49.72;99100.94;5076578;28;45376;-62
2023/08/14 00:14:36;;;;;;;;;10.75;10.75;;;;;25.71;49.60;99099.72;5076607;28;46040;-62
2023/08/14 00:17:01;;;;;;;;;10.75;9.00;;;;;25.65;49.62;99095.78;5076144;28;45355;-62
2023/08/14 00:19:27;;;;;;;;;9.00;9.00;;;;;25.61;49.59;99097.09;5076168;28;45406;-62
2023/08/14 00:21:52;;;;;;;;;11.00;10.50;;;;;25.58;49.68;99094.69;5075901;27;45461;-62
2023/08/14 00:24:17;;;;;;;;;9.25;7.75;;;;;25.53;49.94;99094.31;5076396;28;45508;-62
2023/08/14 00:26:43;;;;;;;;;8.75;8.75;;;;;25.49;49.84;99086.66;5076076;28;45465;-62
2023/08/14 00:29:08;;;;;;;;;11.25;10.75;;;;;25.46;49.84;99092.41;5075503;28;46517;-62
2023/08/14 00:31:34;;;;;;;;;8.25;8.00;;;;;25.46;50.06;99092.41;5075624;28;45411;-62
2023/08/14 00:33:59;;;;;;;;;9.75;8.00;;;;;25.45;49.81;99082.63;5076253;28;45406;-62
2023/08/14 00:36:25;;;;;;;;;10.00;9.00;;;;;25.44;50.00;99087.16;5055287;28;45450;-62
2023/08/14 00:38:50;;;;;;;;;11.00;11.00;;;;;25.38;49.93;99075.13;5055474;28;45597;-62
2023/08/14 00:41:16;;;;;;;;;10.50;9.75;;;;;25.33;49.98;99072.03;5055611;28;45428;-63
2023/08/14 00:43:41;;;;;;;;;11.00;11.00;;;;;25.29;50.28;99075.22;5056178;28;45503;-62
2023/08/14 00:46:07;;;;;;;;;13.25;9.00;;;;;25.25;50.40;99081.94;5054228;28;45652;-62
2023/08/14 00:48:33;;;;;;;;;9.50;8.25;;;;;25.25;50.38;99082.78;5055870;28;46227;-62
2023/08/14 00:50:59;;;;;;;;;7.80;7.80;;;;;25.24;50.23;99085.63;5070590;28;45421;-62
2023/08/14 00:53:27;;;;;;;;;9.00;8.25;;;;;25.25;50.22;99081.94;5055622;28;45490;-62
2023/08/14 00:55:54;;;;;;;;;9.50;8.50;;;;;25.25;50.53;99073.84;5055105;28;45432;-62
2023/08/14 00:58:20;;;;;;;;;10.80;9.00;;;;;25.22;50.73;99071.44;5055292;28;46374;-62
2023/08/14 01:00:46;;;;;;;;;10.50;8.00;;;;;25.18;50.35;99073.59;5055275;28;45467;-62
2023/08/14 01:03:11;;;;;;;;;9.00;8.25;;;;;25.16;50.86;99072.06;5055312;28;45352;-62
2023/08/14 01:05:37;;;;;;;;;7.00;7.00;;;;;25.12;50.46;99065.31;5056260;28;45574;-62
2023/08/14 01:08:02;;;;;;;;;10.25;9.25;;;;;25.10;50.73;99065.44;5075127;28;45468;-62
2023/08/14 01:10:58;;;;;;;;;9.50;8.25;;;;;25.09;51.11;99068.31;5075038;28;45360;-61
2023/08/14 01:13:40;;;;;;;;;9.40;7.60;;;;;25.06;51.16;99066.75;5061762;28;45394;-62
2023/08/14 01:16:30;;;;;;;;;9.25;9.25;;;;;25.02;51.62;99062.66;5073355;28;45515;-62
2023/08/14 01:18:58;;;;;;;;;8.00;7.00;;;;;24.98;51.68;99066.66;5074896;28;46283;-62
2023/08/14 01:21:55;;;;;;;;;7.00;7.00;;;;;24.96;51.79;99063.31;5074856;28;45505;-62
2023/08/14 01:24:52;;;;;;;;;9.75;9.75;;;;;24.93;51.74;99066.28;5070333;28;45403;-62
2023/08/14 01:27:19;;;;;;;;;11.25;8.75;;;;;24.89;51.70;99056.78;5074799;28;45580;-62
2023/08/14 01:29:55;;;;;;;;;10.40;8.80;;;;;24.82;52.09;99061.94;5075110;28;46352;-62
2023/08/14 01:32:20;;;;;;;;;8.20;8.20;;;;;24.79;52.31;99062.25;5075134;28;45364;-62
2023/08/14 01:34:45;;;;;;;;;9.50;9.50;;;;;24.74;52.29;99064.56;5073723;28;45490;-62
2023/08/14 01:37:21;;;;;;;;;8.75;8.50;;;;;24.69;52.49;99064.16;5074489;28;45487;-62
2023/08/14 01:39:59;;;;;;;;;8.80;8.00;;;;;24.63;52.01;99065.59;5074992;28;45468;-62
2023/08/14 01:42:32;;;;;;;;;8.40;8.40;;;;;24.55;52.05;99065.53;5074922;28;45397;-62
2023/08/14 01:45:01;;;;;;;;;10.40;10.40;;;;;24.52;53.14;99068.53;5074874;28;45428;-62
2023/08/14 01:47:30;;;;;;;;;8.00;8.00;;;;;24.48;53.30;99061.72;5073140;28;45842;-62
2023/08/14 01:49:56;;;;;;;;;10.50;9.00;;;;;24.44;53.26;99060.34;5074342;28;46144;-62
2023/08/14 01:52:22;;;;;;;;;9.25;9.00;;;;;24.39;53.29;99064.50;5073001;27;45510;-62
2023/08/14 01:54:47;;;;;;;;;9.75;9.00;;;;;24.32;53.45;99067.78;5074918;28;45378;-62
2023/08/14 01:57:12;;;;;;;;;9.25;8.50;;;;;24.26;53.26;99063.00;5074835;28;45528;-62
2023/08/14 01:59:47;;;;;;;;;9.50;9.25;;;;;24.21;53.83;99059.88;5073436;28;47033;-62
2023/08/14 02:02:13;;;;;;;;;7.60;7.60;;;;;24.15;54.48;99060.44;5074720;28;45419;-62
2023/08/14 02:04:39;;;;;;;;;7.75;7.00;;;;;24.11;54.29;99063.63;5074883;28;45422;-62
2023/08/14 02:07:11;;;;;;;;;10.75;9.50;;;;;24.06;54.06;99053.28;5074113;27;45398;-62
2023/08/14 02:09:38;;;;;;;;;9.25;8.25;;;;;24.04;54.59;99057.97;5074678;27;46824;-62
2023/08/14 02:12:03;;;;;;;;;8.40;8.40;;;;;24.01;54.08;99063.63;5074759;28;45490;-62
2023/08/14 02:14:29;;;;;;;;;12.50;9.50;;;;;23.98;55.19;99063.94;5074458;28;45456;-62
2023/08/14 02:16:55;;;;;;;;;8.25;8.25;;;;;23.95;54.83;99061.56;5076635;28;45493;-62
2023/08/14 02:19:20;;;;;;;;;8.75;8.75;;;;;23.93;55.08;99064.41;5077732;28;45570;-62
2023/08/14 02:21:46;;;;;;;;;10.75;9.00;;;;;23.88;55.77;99066.66;5077299;28;45378;-62
2023/08/14 02:24:11;;;;;;;;;6.50;6.50;;;;;23.87;56.13;99056.03;5078100;28;45759;-62
2023/08/14 02:26:36;;;;;;;;;8.25;8.00;;;;;23.83;55.89;99060.88;5076852;28;45430;-62
2023/08/14 02:29:03;;;;;;;;;7.50;6.75;;;;;23.79;55.45;99067.56;5077706;28;46308;-62
2023/08/14 02:31:28;;;;;;;;;7.60;7.00;;;;;23.75;56.48;99060.75;5077804;28;45290;-61
2023/08/14 02:33:58;;;;;;;;;9.25;8.25;;;;;23.70;56.75;99063.03;5077772;28;45418;-61
2023/08/14 02:36:24;;;;;;;;;9.50;9.00;;;;;23.67;56.34;99060.63;5076778;28;45501;-62
2023/08/14 02:38:49;;;;;;;;;7.75;7.75;;;;;23.60;56.38;99060.38;5077697;28;46233;-61
2023/08/14 02:41:15;;;;;;;;;9.25;8.00;;;;;23.56;56.01;99064.34;5077571;28;45356;-62
2023/08/14 02:43:40;;;;;;;;;10.50;9.50;;;;;23.53;56.49;99072.72;5077890;28;45446;-61
2023/08/14 02:46:05;;;;;;;;;9.75;8.50;;;;;23.51;57.28;99066.63;5077464;28;45596;-62
2023/08/14 02:48:31;;;;;;;;;9.50;8.25;;;;;23.47;57.22;99064.31;5077618;28;45444;-61
2023/08/14 02:50:56;;;;;;;;;8.00;8.00;;;;;23.44;57.49;99067.31;5077114;28;45462;-61
2023/08/14 02:53:22;;;;;;;;;9.00;9.00;;;;;23.41;57.70;99062.22;5077764;28;45485;-62
2023/08/14 02:55:53;;;;;;;;;8.00;7.75;;;;;23.35;58.06;99065.47;5077664;27;45400;-62
2023/08/14 02:58:19;;;;;;;;;7.40;7.40;;;;;23.30;57.91;99066.75;5077409;28;45586;-62
2023/08/14 03:00:46;;;;;;;;;9.00;8.00;;;;;23.27;57.75;99069.75;5077415;28;45412;-62
2023/08/14 03:03:12;;;;;;;;;8.50;7.50;;;;;23.25;58.69;99069.03;5077593;28;45565;-61
2023/08/14 03:05:37;;;;;;;;;9.75;8.50;;;;;23.23;58.61;99075.56;5076888;28;45435;-61
2023/08/14 03:08:04;;;;;;;;;4.50;4.25;;;;;23.21;58.76;99067.63;5077545;28;45410;-62
2023/08/14 03:10:29;;;;;;;;;9.20;9.20;;;;;23.18;60.43;99062.53;5077252;28;45412;-62
2023/08/14 03:12:55;;;;;;;;;8.00;8.00;;;;;23.15;59.42;99070.88;5077348;28;45371;-62
2023/08/14 03:15:21;;;;;;;;;10.25;10.25;;;;;23.14;59.85;99069.16;5076996;28;45364;-61
2023/08/14 03:17:46;;;;;;;;;11.00;7.50;;;;;23.13;60.16;99064.78;5076791;28;46200;-62
2023/08/14 03:20:12;;;;;;;;;5.50;5.50;;;;;23.12;59.78;99071.19;5076864;28;45286;-62
2023/08/14 03:22:37;;;;;;;;;12.75;8.25;;;;;23.11;60.56;99066.78;5077401;28;45400;-62
2023/08/14 03:25:03;;;;;;;;;9.25;9.25;;;;;23.11;59.87;99061.41;5077227;28;45446;-62
2023/08/14 03:27:29;;;;;;;;;9.50;8.50;;;;;;;;5076145;28;45608;-62
2023/08/14 03:29:54;;;;;;;;;8.50;8.00;;;;;23.09;60.48;99073.28;5075399;28;45382;-62
2023/08/14 03:32:19;;;;;;;;;10.75;7.75;;;;;23.09;60.62;99073.28;5077133;28;45835;-62
2023/08/14 03:34:45;;;;;;;;;9.75;9.25;;;;;23.07;60.99;99062.69;5075135;28;45329;-65
2023/08/14 03:37:10;;;;;;;;;10.00;9.25;;;;;23.06;60.64;99062.81;5076364;28;46307;-61
2023/08/14 03:39:35;;;;;;;;;9.75;9.00;;;;;23.02;61.31;99066.78;5075049;27;45356;-62
2023/08/14 03:42:01;;;;;;;;;9.50;9.25;;;;;22.99;61.48;99070.59;5076821;28;45511;-62
2023/08/14 03:44:26;;;;;;;;;7.25;7.25;;;;;22.95;61.45;99061.13;5076635;28;45359;-62
2023/08/14 03:46:52;;;;;;;;;10.25;9.00;;;;;22.92;62.02;99062.25;5076422;28;46394;-62
2023/08/14 03:49:17;;;;;;;;;9.75;9.75;;;;;22.91;61.96;99059.69;5076479;28;45397;-62
2023/08/14 03:51:42;;;;;;;;;9.50;7.50;;;;;22.88;61.67;99051.91;5076307;28;45476;-62
2023/08/14 03:54:08;;;;;;;;;11.25;9.75;;;;;22.85;62.23;99061.09;5076683;28;45521;-62
2023/08/14 03:56:33;;;;;;;;;11.00;11.00;;;;;22.85;62.15;99061.09;5076479;28;45918;-62
2023/08/14 03:58:58;;;;;;;;;9.00;9.00;;;;;22.86;62.38;99067.34;5076244;28;45351;-62
2023/08/14 04:01:24;;;;;;;;;9.00;9.00;;;;;22.85;62.74;99066.47;5076632;28;45687;-61
2023/08/14 04:03:49;;;;;;;;;8.50;8.00;;;;;22.84;62.55;99066.63;5076108;28;45591;-62
2023/08/14 04:06:14;;;;;;;;;11.75;11.00;;;;;22.82;62.63;99069.44;5075613;28;45445;-61
2023/08/14 04:08:40;;;;;;;;;11.00;11.00;;;;;22.83;62.43;99076.53;5091601;27;45376;-62
2023/08/14 04:11:05;;;;;;;;;11.25;9.25;;;;;22.85;62.63;99076.38;5076135;28;45377;-61
2023/08/14 04:13:30;;;;;;;;;15.25;11.00;;;;;22.86;62.52;99068.19;5076390;28;45371;-62
2023/08/14 04:15:59;;;;;;;;;11.50;10.00;;;;;22.86;62.67;99078.09;5076200;28;46495;-62
2023/08/14 04:18:28;;;;;;;;;11.40;9.80;;;;;22.86;62.38;99072.72;5076227;28;45455;-62
2023/08/14 04:20:54;;;;;;;;;11.20;10.60;;;;;22.84;63.06;99074.69;5076092;28;45420;-62
2023/08/14 04:23:19;;;;;;;;;11.50;10.00;;;;;22.82;62.67;99076.66;5076342;28;45385;-62
2023/08/14 04:25:45;;;;;;;;;9.25;8.25;;;;;22.79;63.17;99082.34;5076061;28;45406;-62
2023/08/14 04:28:10;;;;;;;;;12.75;9.75;;;;;22.72;62.54;99082.00;5076043;28;45436;-62
2023/08/14 04:30:35;;;;;;;;;11.25;9.50;;;;;22.65;62.99;99083.53;5075911;28;45983;-62
2023/08/14 04:33:01;;;;;;;;;10.00;9.00;;;;;22.59;63.08;99078.72;5076249;28;45275;-61
2023/08/14 04:35:26;;;;;;;;;11.25;11.25;;;;;22.53;63.25;99081.97;5075395;28;46580;-62
2023/08/14 04:37:51;;;;;;;;;8.75;8.00;;;;;22.49;64.34;99078.69;5075768;28;45358;-61
2023/08/14 04:40:17;;;;;;;;;10.00;10.00;;;;;22.47;63.67;99080.66;5074282;28;45392;-62
2023/08/14 04:42:42;;;;;;;;;10.00;10.00;;;;;22.43;64.95;99079.25;5075162;28;45298;-62
2023/08/14 04:45:09;;;;;;;;;11.00;11.00;;;;;22.42;64.96;99079.41;5075399;28;46463;-61
2023/08/14 04:47:34;;;;;;;;;11.40;10.00;;;;;22.42;64.70;99079.41;5075088;28;45409;-62
2023/08/14 04:49:59;;;;;;;;;10.25;9.50;;;;;22.42;65.14;99084.78;5075261;28;45395;-61
2023/08/14 04:52:25;;;;;;;;;12.25;10.00;;;;;22.43;65.15;99081.94;5075741;28;45411;-61
2023/08/14 04:54:50;;;;;;;;;9.00;9.00;;;;;22.46;65.18;99086.16;5075609;28;46331;-62
2023/08/14 04:57:16;;;;;;;;;11.00;10.25;;;;;22.47;65.09;99090.56;5075643;28;45707;-62
2023/08/14 04:59:41;;;;;;;;;11.00;9.75;;;;;22.48;65.42;99087.75;5074442;28;45471;-62
2023/08/14 05:02:07;;;;;;;;;9.25;9.00;;;;;22.50;65.87;99090.28;5075631;28;45567;-62
2023/08/14 05:04:32;;;;;;;;;13.00;11.00;;;;;22.51;65.83;99094.69;5075356;28;45502;-62
2023/08/14 05:06:58;;;;;;;;;10.75;9.00;;;;;22.52;65.68;99099.91;5074749;28;45330;-62
2023/08/14 05:09:23;;;;;;;;;11.50;11.50;;;;;22.54;65.27;99103.31;5074018;28;45474;-62
2023/08/14 05:11:49;;;;;;;;;10.00;9.00;;;;;22.56;65.69;99103.19;5075324;28;45354;-62
2023/08/14 05:14:18;;;;;;;;;9.50;9.50;;;;;22.56;65.68;99106.72;5075178;28;45371;-62
2023/08/14 05:16:44;;;;;;;;;10.40;10.40;;;;;22.58;65.35;99111.97;5075141;28;45431;-62
2023/08/14 05:19:09;;;;;;;;;10.50;10.50;;;;;22.58;66.09;99118.19;5074890;28;45584;-62
2023/08/14 05:21:35;;;;;;;;;11.25;10.25;;;;;22.59;66.28;99121.72;5074463;28;45343;-61
2023/08/14 05:24:00;;;;;;;;;12.25;10.25;;;;;22.57;66.11;99116.50;5074807;28;45415;-62
2023/08/14 05:26:26;;;;;;;;;14.25;11.00;;;;;22.56;66.66;99122.00;5074880;28;45409;-62
2023/08/14 05:28:51;;;;;;;;;11.50;7.50;;;;;22.53;65.59;99107.00;5074844;28;45364;-61
2023/08/14 05:31:16;;;;;;;;;9.00;9.00;;;;;22.49;66.06;99115.47;5074646;28;45589;-62
2023/08/14 05:33:42;;;;;;;;;12.75;11.00;;;;;22.48;66.85;99119.97;5074394;28;46242;-62
2023/08/14 05:36:07;;;;;;;;;9.75;8.25;;;;;22.47;67.13;99120.13;5072749;28;45370;-62
2023/08/14 05:38:32;;;;;;;;;11.25;10.25;;;;;22.45;66.98;99119.44;5107650;27;45978;-62
2023/08/14 05:40:58;;;;;;;;;13.75;11.00;;;;;22.45;66.65;99125.66;5073052;27;45590;-62
2023/08/14 05:43:23;;;;;;;;;13.25;12.00;;;;;22.46;67.36;99132.69;5073119;28;46930;-62
2023/08/14 05:45:49;;;;;;;;;12.75;10.00;;;;;22.47;66.94;99134.41;5074086;28;45383;-62
2023/08/14 05:48:14;;;;;;;;;13.25;11.25;;;;;22.47;67.00;99139.78;5072991;28;45456;-62
2023/08/14 05:50:41;;;;;;;;;10.50;10.00;;;;;22.46;67.21;99148.81;5072917;28;45310;-62
2023/08/14 05:53:07;;;;;;;;;11.00;10.00;;;;;22.47;67.26;99147.84;5072625;28;46993;-62
2023/08/14 05:55:38;;;;;;;;;10.20;7.80;;;;;22.48;67.45;99144.16;5073960;28;45337;-61
2023/08/14 05:58:04;;;;;;;;;13.00;13.00;;;;;22.46;67.85;99150.66;5074804;28;45473;-62
2023/08/14 06:00:30;;;;;;;;;12.00;10.50;;;;;22.46;68.71;99153.34;5074189;28;45542;-61
2023/08/14 06:02:56;;;;;;;;;10.25;9.00;;;;;22.45;68.43;99154.34;5074201;28;46272;-62
2023/08/14 06:05:22;;;;;;;;;10.60;9.40;;;;;22.40;68.60;99153.91;5073649;28;45367;-62
2023/08/14 06:07:48;;;;;;;;;13.00;11.50;;;;;22.36;68.56;99153.31;5074656;28;45441;-62
2023/08/14 06:10:14;;;;;;;;;12.00;10.50;;;;;22.35;68.41;99153.44;5073991;28;45451;-61
2023/08/14 06:12:40;;;;;;;;;12.50;11.00;;;;;22.31;68.99;99144.81;5073832;28;45486;-62
2023/08/14 06:15:07;;;;;;;;;10.00;8.50;;;;;22.29;68.34;99149.44;5073850;28;45462;-62
2023/08/14 06:17:32;;;;;;;;;13.00;13.00;;;;;22.30;69.50;99148.47;5073396;28;45369;-65
2023/08/14 06:19:59;;;;;;;;;12.25;11.00;;;;;22.33;69.04;99147.34;5071774;28;45459;-62
2023/08/14 06:22:24;;;;;;;;;10.75;9.75;;;;;22.34;70.15;99146.38;5073880;28;45340;-61
2023/08/14 06:24:50;;;;;;;;;9.50;9.50;;;;;22.35;68.71;99156.13;5073595;28;45334;-61
2023/08/14 06:27:15;;;;;;;;;4.25;4.00;;;;;22.35;69.74;99154.28;5074121;28;45880;-62
2023/08/14 06:29:41;;;;;;;;;13.25;12.00;;;;;22.36;70.10;99153.31;5072314;28;46007;-62
2023/08/14 06:32:06;;;;;;;;;12.75;11.50;;;;;22.38;70.22;99153.19;5073873;28;46235;-62
2023/08/14 06:34:32;;;;;;;;;13.50;11.75;;;;;22.39;69.64;99155.75;5074189;27;45686;-62
2023/08/14 06:36:57;;;;;;;;;11.00;10.75;;;;;22.40;70.10;99154.75;5073522;28;45362;-61
2023/08/14 06:39:23;;;;;;;;;11.25;11.00;;;;;22.42;69.34;99157.31;5073691;28;45358;-62
2023/08/14 06:41:48;;;;;;;;;12.50;11.25;;;;;22.43;71.65;99157.19;5073615;28;46669;-62
2023/08/14 06:44:14;;;;;;;;;11.25;10.75;;;;;22.45;71.02;99151.66;5074115;28;45446;-61
2023/08/14 06:46:39;;;;;;;;;11.50;11.00;;;;;22.44;70.14;99160.72;5073847;28;45951;-61
2023/08/14 06:49:05;;;;;;;;;9.25;8.50;;;;;22.42;71.01;99155.47;5072011;28;45558;-61
2023/08/14 06:51:34;;;;;;;;;13.75;13.25;;;;;22.41;71.47;99156.47;5071862;28;47836;-62
2023/08/14 06:53:59;;;;;;;;;16.00;14.20;;;;;22.42;71.99;99154.63;5073484;28;45367;-62
2023/08/14 06:56:25;;;;;;;;;13.00;11.50;;;;;22.40;72.13;99165.50;5073689;28;45387;-62
2023/08/14 06:58:50;;;;;;;;;12.00;11.00;;;;;22.38;72.96;99175.53;5073669;28;45459;-62
2023/08/14 07:01:16;;;;;;;;;13.50;12.00;;;;;22.35;73.00;99175.78;5073306;28;46421;-62
2023/08/14 07:03:41;;;;;;;;;12.50;12.00;;;;;22.36;73.37;99166.75;5076653;28;45321;-65
2023/08/14 07:06:07;;;;;;;;;13.25;13.00;;;;;22.38;75.87;99180.03;5076626;28;45902;-62
2023/08/14 07:08:32;;;;;;;;;10.75;9.00;;;;;22.44;74.99;99188.44;5076567;28;45441;-62
2023/08/14 07:10:58;;;;;;;;;11.00;11.00;;;;;22.54;74.32;99178.56;5076232;28;46146;-62
2023/08/14 07:13:23;;;;;;;;;12.50;12.00;;;;;22.65;74.00;99185.66;5076249;28;45383;-62
2023/08/14 07:15:49;;;;;;;;;11.25;10.25;;;;;22.83;71.78;99176.00;5075342;28;45637;-62
2023/08/14 07:18:17;;;;;;;;;11.50;10.50;;;;;23.05;70.22;99177.59;5076997;28;45463;-62
2023/08/14 07:20:43;;;;;;;;;12.00;11.50;;;;;23.37;67.76;99189.97;5076299;28;45435;-62
2023/08/14 07:23:08;;;;;;;;;7.60;7.60;;;;;23.58;67.71;99190.72;5077105;28;45423;-61
2023/08/14 07:25:33;;;;;;;;;8.75;7.25;;;;;23.74;66.07;99171.28;5076898;28;45527;-62
2023/08/14 07:27:59;;;;;;;;;7.50;7.50;;;;;23.91;64.36;99189.41;5076720;28;45654;-63
2023/08/14 07:30:25;;;;;;;;;12.25;6.50;;;;;24.06;63.54;99152.09;5076972;28;46338;-62
2023/08/14 07:32:50;;;;;;;;;10.25;10.25;;;;;24.13;62.73;99167.50;5076883;28;45313;-63
2023/08/14 07:35:16;;;;;;;;;12.00;11.50;;;;;24.23;62.79;99159.41;5076155;28;45447;-63
2023/08/14 07:37:41;;;;;;;;;11.00;9.75;;;;;24.30;62.55;99145.22;5076468;28;45520;-63
2023/08/14 07:40:07;;;;;;;;;8.50;8.50;;;;;24.38;60.34;99163.34;5076301;28;45706;-63
2023/08/14 07:42:32;;;;;;;;;3.25;3.25;;;;;24.50;59.44;99223.31;5076938;28;45406;-63
2023/08/14 07:44:58;;;;;;;;;9.25;9.25;;;;;24.60;58.64;99222.28;5076367;28;45416;-62
2023/08/14 07:47:24;;;;;;;;;10.00;10.00;;;;;24.65;59.55;99186.78;5076640;28;45583;-63
2023/08/14 07:49:49;;;;;;;;;7.00;5.75;;;;;24.69;59.48;99228.63;5076223;28;46420;-62
2023/08/14 07:52:14;;;;;;;;;7.00;5.75;;;;;24.72;59.33;99185.19;5075110;28;45382;-63
2023/08/14 07:54:40;;;;;;;;;14.50;13.00;;;;;24.74;59.49;99196.69;5076457;28;45966;-63
2023/08/14 07:57:05;;;;;;;;;10.00;8.50;;;;;24.80;57.46;99211.44;5076344;27;45404;-63
2023/08/14 07:59:30;;;;;;;;;9.50;8.25;;;;;24.88;57.52;99231.25;5076304;28;46265;-63
2023/08/14 08:01:56;;;;;;;;;9.25;9.25;;;;;24.94;57.23;99209.09;5076165;28;45398;-64
2023/08/14 08:04:21;;;;;;;;;8.00;8.00;;;;;24.99;57.43;99222.97;5076158;28;46057;-63
2023/08/14 08:06:47;;;;;;;;;8.25;8.25;;;;;25.02;57.98;99209.19;5074222;28;45373;-63
2023/08/14 08:09:13;;;;;;;;;9.00;7.20;;;;;25.10;56.94;99221.94;5076196;28;45642;-64
2023/08/14 08:11:39;;;;;;;;;9.20;8.40;;;;;25.18;57.07;99242.75;5076467;28;45390;-63
2023/08/14 08:14:06;;;;;;;;;6.00;6.00;;;;;25.23;57.01;99244.00;5075179;28;45508;-62
2023/08/14 08:16:34;;;;;;;;;9.75;8.75;;;;;25.28;56.91;99230.91;5075632;28;45604;-63
2023/08/14 08:19:02;;;;;;;;;7.00;7.00;;;;;25.35;56.52;99229.28;5075633;28;46093;-63
2023/08/14 08:21:28;;;;;;;;;8.20;8.20;;;;;25.44;55.88;99237.50;5075561;28;45405;-63
2023/08/14 08:23:53;;;;;;;;;9.75;8.75;;;;;25.51;55.95;99233.16;5074635;28;45519;-63
2023/08/14 08:26:18;;;;;;;;;12.25;9.75;;;;;25.55;56.72;99232.69;5075659;28;45309;-62
2023/08/14 08:28:44;;;;;;;;;13.00;13.00;;;;;25.64;56.71;99247.16;5074545;28;46224;-63
2023/08/14 08:31:09;;;;;;;;;9.50;9.25;;;;;25.72;56.71;99252.66;5075786;28;45384;-63
2023/08/14 08:33:35;;;;;;;;;14.25;12.50;;;;;25.82;56.61;99253.41;5075959;28;45575;-63
2023/08/14 08:36:00;;;;;;;;;13.25;12.75;;;;;25.92;56.64;99256.03;5075009;28;45622;-63
2023/08/14 08:38:25;;;;;;;;;11.75;11.50;;;;;26.01;56.59;99255.94;5075587;28;46105;-65
2023/08/14 08:40:52;;;;;;;;;11.25;11.25;;;;;26.12;56.47;99259.41;5075876;28;45352;-63
2023/08/14 08:43:19;;;;;;;;;13.75;12.75;;;;;26.22;56.41;99263.72;5075805;28;45452;-63
2023/08/14 08:45:50;;;;;;;;;12.25;12.00;;;;;26.33;56.45;99263.47;5075427;28;45506;-63
2023/08/14 08:48:21;;;;;;;;;13.25;11.50;;;;;26.43;56.50;99266.09;5075136;28;46094;-63
2023/08/14 08:50:48;;;;;;;;;9.80;9.80;;;;;26.53;56.33;99261.41;5074420;27;45377;-64
2023/08/14 08:53:14;;;;;;;;;10.40;10.40;;;;;26.60;56.24;99265.19;5075411;28;45480;-63
2023/08/14 08:55:40;;;;;;;;;12.75;12.50;;;;;26.70;56.45;99262.38;5074031;28;45382;-63
2023/08/14 08:58:07;;;;;;;;;14.50;14.50;;;;;26.79;56.77;99258.72;5075119;28;46173;-63
2023/08/14 09:00:32;;;;;;;;;12.60;11.40;;;;;26.88;56.63;99262.28;5075345;28;45440;-64
2023/08/14 09:02:58;;;;;;;;;13.00;13.00;;;;;26.95;55.58;99256.13;5075574;28;45296;-63
2023/08/14 09:05:23;;;;;;;;;11.25;11.25;;;;;27.01;54.75;99249.19;5073348;28;45656;-63
2023/08/14 09:07:49;;;;;;;;;15.75;15.75;;;;;27.05;55.25;99243.28;5075151;28;46055;-63
2023/08/14 09:10:15;;;;;;;;;13.25;11.75;;;;;27.08;55.32;99251.09;5075066;28;45494;-63
2023/08/14 09:12:41;;;;;;;;;14.75;14.50;;;;;27.12;55.64;99254.31;5074863;28;45369;-64
2023/08/14 09:15:08;;;;;;;;;13.00;13.00;;;;;27.13;55.10;99244.34;5075091;28;45454;-63
2023/08/14 09:17:34;;;;;;;;;15.25;13.50;;;;;27.15;55.41;99239.63;5074830;28;45497;-63
2023/08/14 09:19:59;;;;;;;;;13.20;11.80;;;;;27.17;55.07;99234.88;5074694;28;45444;-63
2023/08/14 09:22:29;;;;;;;;;13.75;12.50;;;;;27.18;55.01;99229.28;5075465;28;45317;-63
2023/08/14 09:24:56;;;;;;;;;10.00;8.00;;;;;27.23;53.39;99226.09;5074342;28;45570;-63
2023/08/14 09:27:22;;;;;;;;;11.00;10.60;;;;;27.32;52.91;99219.69;5074243;28;45482;-63
2023/08/14 09:29:52;;;;;;;;;19.00;12.40;;;;;27.36;52.54;99218.34;5074696;28;45451;-63
2023/08/14 09:32:22;;;;;;;;;11.25;11.25;;;;;27.42;52.40;99209.56;5075205;28;45361;-64
2023/08/14 09:34:47;;;;;;;;;10.00;10.00;;;;;27.49;51.77;99204.31;5074177;28;45452;-63
2023/08/14 09:37:12;;;;;;;;;11.00;9.00;;;;;27.55;51.54;99203.66;5074411;28;45472;-63
2023/08/14 09:39:38;;;;;;;;;9.00;9.00;;;;;27.59;50.87;99192.34;5074397;28;45437;-63
2023/08/14 09:42:03;;;;;;;;;7.25;7.25;;;;;27.59;50.60;99197.78;5074706;28;45392;-63
2023/08/14 09:44:29;;;;;;;;;8.50;7.50;;;;;27.60;50.61;99188.63;5074845;28;45368;-63
2023/08/14 09:46:59;;;;;;;;;9.75;9.75;;;;;27.63;50.82;99184.75;5074237;28;45589;-63
2023/08/14 09:49:27;;;;;;;;;10.00;9.80;;;;;27.70;51.21;99177.63;5074491;28;45431;-63
2023/08/14 09:51:58;;;;;;;;;11.40;10.20;;;;;27.76;50.63;99172.38;5073907;28;45443;-63
2023/08/14 09:54:31;;;;;;;;;8.80;8.80;;;;;27.85;50.34;99166.94;5074413;28;45314;-63
2023/08/14 09:56:59;;;;;;;;;12.60;10.00;;;;;27.90;50.68;99167.28;5072572;28;48113;-63
2023/08/14 09:59:25;;;;;;;;;15.00;13.60;;;;;27.95;50.94;99152.22;5072588;27;45394;-64
2023/08/14 10:01:57;;;;;;;;;12.50;12.50;;;;;28.05;50.79;99146.59;5074411;28;45449;-63
2023/08/14 10:04:23;;;;;;;;;15.25;14.25;;;;;28.14;50.61;99137.44;5074365;28;45365;-63
2023/08/14 10:06:51;;;;;;;;;11.25;10.50;;;;;28.24;50.01;99135.41;5073450;28;46622;-63
2023/08/14 10:09:24;;;;;;;;;9.00;9.00;;;;;28.30;49.94;99123.03;5072446;28;45458;-63
2023/08/14 10:11:54;;;;;;;;;13.75;13.00;;;;;28.33;49.15;99114.53;5074352;28;45460;-63
2023/08/14 10:14:23;;;;;;;;;18.25;15.50;;;;;28.34;49.24;99110.78;5074300;28;45416;-63
2023/08/14 10:16:52;;;;;;;;;14.75;14.75;;;;;28.36;49.28;99103.34;5074104;28;46561;-63
2023/08/14 10:19:23;;;;;;;;;13.40;13.40;;;;;28.44;49.14;99100.59;5074378;28;45471;-63
2023/08/14 10:21:52;;;;;;;;;14.00;14.00;;;;;28.52;48.52;99091.56;5072818;28;45562;-64
2023/08/14 10:24:18;;;;;;;;;14.25;13.00;;;;;28.57;48.63;99081.88;5074409;28;45420;-63
2023/08/14 10:26:45;;;;;;;;;13.25;12.75;;;;;28.64;48.92;99077.47;5073990;28;46451;-64
2023/08/14 10:29:11;;;;;;;;;14.40;13.00;;;;;28.76;48.03;99075.19;5074270;28;45380;-63
2023/08/14 10:31:37;;;;;;;;;16.25;14.50;;;;;28.86;48.49;99066.81;5073141;28;45467;-63
2023/08/14 10:34:04;;;;;;;;;13.25;13.25;;;;;28.97;47.48;99058.28;5074108;28;45445;-63
2023/08/14 10:36:30;;;;;;;;;13.75;12.75;;;;;29.08;47.57;99053.28;5073703;28;46211;-63
2023/08/14 10:39:06;;;;;;;;;15.00;14.00;;;;;29.22;47.39;99040.78;5077295;28;45349;-64
2023/08/14 10:41:35;;;;;;;;;15.00;14.75;;;;;29.36;47.83;99036.41;5077270;28;45542;-64
2023/08/14 10:44:09;;;;;;;;;14.25;13.50;;;;;29.48;47.32;99033.13;5076048;28;45752;-63
2023/08/14 10:46:36;;;;;;;;;13.75;13.75;;;;;29.67;46.86;99028.16;5077228;28;46527;-64
2023/08/14 10:49:02;;;;;;;;;16.50;15.25;;;;;29.83;46.58;99020.66;5077380;28;45391;-64
2023/08/14 10:51:31;;;;;;;;;16.25;16.25;;;;;30.03;45.60;99010.13;5077109;28;45421;-64
2023/08/14 10:54:09;;;;;;;;;13.75;13.75;;;;;30.20;45.43;99005.31;5077342;28;45544;-63
2023/08/14 10:56:42;;;;;;;;;14.00;13.00;;;;;30.35;44.37;99002.56;5077509;28;45971;-64
2023/08/14 10:59:26;;;;;;;;;13.40;10.00;;;;;30.51;44.24;98999.63;5076981;28;45366;-64
2023/08/14 11:02:05;;;;;;;;;12.25;11.25;;;;;30.68;43.83;98987.50;5077092;28;45448;-63
2023/08/14 11:04:35;;;;;;;;;11.25;11.25;;;;;30.82;44.33;98978.44;5077142;28;45593;-64
2023/08/14 11:07:05;;;;;;;;;12.50;12.50;;;;;30.96;43.49;98976.69;5076738;28;45610;-64
2023/08/14 11:09:34;;;;;;;;;13.40;12.80;;;;;31.07;42.83;98972.59;5077223;28;45399;-63
2023/08/14 11:12:05;;;;;;;;;12.25;11.25;;;;;31.14;42.13;98954.47;5077450;28;45779;-64
2023/08/14 11:14:34;;;;;;;;;9.25;9.25;;;;;31.19;41.80;98951.97;5077120;28;45381;-64
2023/08/14 11:17:00;;;;;;;;;11.00;11.00;;;;;31.27;42.67;98959.16;5076976;28;45450;-64
2023/08/14 11:19:25;;;;;;;;;9.00;8.50;;;;;31.32;41.20;98948.53;5075906;28;45389;-64
2023/08/14 11:21:51;;;;;;;;;10.50;10.00;;;;;31.36;41.50;98947.91;5076716;28;45464;-64